Time;durP1;ratioP1;P1;durP2;ratioP2;P2;SDS_P1;SDS_P2;PMS_P1;PMS_P2;Temp;Humidity;BMP_temperature;BMP_pressure;BME280_temperature;BME280_humidity;BME280_pressure;Samples;Min_cycle;Max_cycle;Signal;HPM_P1;HPM_P2
2023/08/25 00:00:24;;;;;;;;;;;21.40;79.50;;;;;;5093530;28;19912;-29
2023/08/25 00:02:50;;;;;;;;;;;21.30;79.50;;;;;;5093330;28;20007;-30
2023/08/25 00:05:15;;;;;;;;;;;21.40;79.60;;;;;;5093034;28;19926;-29
2023/08/25 00:07:41;;;;;;;;;;;21.30;79.40;;;;;;5093111;28;19954;-29
2023/08/25 00:10:06;;;;;;;;;;;21.30;79.50;;;;;;5093164;28;19939;-30
2023/08/25 00:12:32;;;;;;;;;;;21.30;79.60;;;;;;5093060;28;20272;-30
2023/08/25 00:14:57;;;;;;;;;;;21.30;79.70;;;;;;5093057;28;19908;-29
2023/08/25 00:17:23;;;;;;;;;;;21.30;79.70;;;;;;5092804;28;20424;-31
2023/08/25 00:19:48;;;;;;;;;;;21.30;79.80;;;;;;5092954;28;19908;-28
2023/08/25 00:22:14;;;;;;;;;;;21.20;79.80;;;;;;5093288;28;19914;-31
2023/08/25 00:24:39;;;;;;;;;;;21.30;79.90;;;;;;5093278;28;19908;-39
2023/08/25 00:27:04;;;;;;;;;;;21.20;79.80;;;;;;5092705;28;19951;-29
2023/08/25 00:29:30;;;;;;;;;;;21.20;79.90;;;;;;5092666;28;19923;-30
2023/08/25 00:31:55;;;;;;;;;;;21.20;80.00;;;;;;5092808;28;19931;-29
2023/08/25 00:34:21;;;;;;;;;;;21.20;80.20;;;;;;5092753;28;19908;-30
2023/08/25 00:36:46;;;;;;;;;;;21.20;80.20;;;;;;5093196;28;19915;-30
2023/08/25 00:39:12;;;;;;;;;;;21.20;80.20;;;;;;5092780;28;19915;-29
2023/08/25 00:41:38;;;;;;;;;;;21.20;80.20;;;;;;5091679;28;20286;-29
2023/08/25 00:44:03;;;;;;;;;;;21.10;80.20;;;;;;5092480;28;19908;-29
2023/08/25 00:46:30;;;;;;;;;;;21.10;80.20;;;;;;5092564;28;19962;-30
2023/08/25 00:48:56;;;;;;;;;;;21.10;80.30;;;;;;5090894;28;19912;-29
2023/08/25 00:51:22;;;;;;;;;;;21.10;80.30;;;;;;5092659;28;19915;-29
2023/08/25 00:53:48;;;;;;;;;;;21.10;80.30;;;;;;5092512;28;19908;-28
2023/08/25 00:56:14;;;;;;;;;;;21.10;80.30;;;;;;5092354;28;19908;-31
2023/08/25 00:58:40;;;;;;;;;;;21.10;80.30;;;;;;5092211;28;19980;-29
2023/08/25 01:01:06;;;;;;;;;;;21.10;80.30;;;;;;5092020;28;19911;-32
2023/08/25 01:03:32;;;;;;;;;;;21.10;80.40;;;;;;5092185;28;19909;-31
2023/08/25 01:05:58;;;;;;;;;;;21.10;80.40;;;;;;5092197;28;19920;-32
2023/08/25 01:08:24;;;;;;;;;;;21.10;80.30;;;;;;5092053;28;19915;-30
2023/08/25 01:10:55;;;;;;;;;;;21.10;80.40;;;;;;5092369;28;20280;-30
2023/08/25 01:13:25;;;;;;;;;;;21.10;80.40;;;;;;5092441;28;19908;-28
2023/08/25 01:15:52;;;;;;;;;;;21.10;80.40;;;;;;5092278;28;19912;-29
2023/08/25 01:18:22;;;;;;;;;;;21.10;80.40;;;;;;5091844;28;19913;-28
2023/08/25 01:20:48;;;;;;;;;;;21.00;80.40;;;;;;5091972;28;20376;-29
2023/08/25 01:23:27;;;;;;;;;;;21.00;80.50;;;;;;5092094;28;19943;-29
2023/08/25 01:25:53;;;;;;;;;;;21.00;80.50;;;;;;5092087;28;19908;-29
2023/08/25 01:28:21;;;;;;;;;;;21.00;80.50;;;;;;5092005;28;20443;-29
2023/08/25 01:30:48;;;;;;;;;;;21.00;80.60;;;;;;5092139;28;19912;-29
2023/08/25 01:33:15;;;;;;;;;;;21.00;80.60;;;;;;5092030;28;19947;-29
2023/08/25 01:35:41;;;;;;;;;;;21.00;80.70;;;;;;5092112;28;19908;-29
2023/08/25 01:38:09;;;;;;;;;;;21.00;80.70;;;;;;5090677;28;20338;-29
2023/08/25 01:40:40;;;;;;;;;;;21.00;80.70;;;;;;5090781;28;19908;-37
2023/08/25 01:43:09;;;;;;;;;;;21.00;80.70;;;;;;5091857;28;19912;-33
2023/08/25 01:45:34;;;;;;;;;;;21.00;80.70;;;;;;5091964;28;19944;-29
2023/08/25 01:48:00;;;;;;;;;;;21.00;80.70;;;;;;5092003;28;20045;-29
2023/08/25 01:50:26;;;;;;;;;;;21.10;80.70;;;;;;5091673;28;19912;-31
2023/08/25 01:52:51;;;;;;;;;;;21.10;80.70;;;;;;5092927;28;20044;-29
2023/08/25 01:55:17;;;;;;;;;;;21.10;80.70;;;;;;5095748;28;19973;-29
2023/08/25 01:57:42;;;;;;;;;;;21.10;80.60;;;;;;5095579;28;19908;-28
2023/08/25 02:00:08;;;;;;;;;;;21.20;80.60;;;;;;5095275;28;20368;-32
2023/08/25 02:02:33;;;;;;;;;;;21.20;80.60;;;;;;5095187;28;19940;-33
2023/08/25 02:04:59;;;;;;;;;;;21.20;80.50;;;;;;5095128;28;20314;-35
2023/08/25 02:07:24;;;;;;;;;;;21.30;80.60;;;;;;5095260;28;19957;-32
2023/08/25 02:09:53;;;;;;;;;;;21.30;80.70;;;;;;5095266;28;19916;-32
2023/08/25 02:12:18;;;;;;;;;;;21.30;80.70;;;;;;5095341;28;19908;-35
2023/08/25 02:14:44;;;;;;;;;;;21.30;80.70;;;;;;5095716;28;19914;-32
2023/08/25 02:17:10;;;;;;;;;;;21.30;80.70;;;;;;5095251;28;19912;-33
2023/08/25 02:19:35;;;;;;;;;;;21.30;80.70;;;;;;5095084;28;20283;-32
2023/08/25 02:22:01;;;;;;;;;;;21.30;80.70;;;;;;5095232;28;19915;-30
2023/08/25 02:24:26;;;;;;;;;;;21.30;80.70;;;;;;5095314;28;20408;-34
2023/08/25 02:26:51;;;;;;;;;;;21.30;80.70;;;;;;5093794;28;19908;-31
2023/08/25 02:29:17;;;;;;;;;;;21.30;80.70;;;;;;5094777;28;19912;-29
2023/08/25 02:31:42;;;;;;;;;;;21.30;80.70;;;;;;5094978;28;19958;-29
2023/08/25 02:34:08;;;;;;;;;;;21.40;80.80;;;;;;5095128;28;19908;-32
2023/08/25 02:36:33;;;;;;;;;;;21.30;80.70;;;;;;5095051;28;19915;-36
2023/08/25 02:38:59;;;;;;;;;;;21.40;80.80;;;;;;5094779;28;20010;-30
2023/08/25 02:41:24;;;;;;;;;;;21.40;80.70;;;;;;5094831;28;20272;-30
2023/08/25 02:43:50;;;;;;;;;;;21.40;80.70;;;;;;5093439;28;19947;-30
2023/08/25 02:46:15;;;;;;;;;;;21.40;80.70;;;;;;5094742;28;20017;-29
2023/08/25 02:48:41;;;;;;;;;;;21.40;80.70;;;;;;5094435;28;19935;-30
2023/08/25 02:51:06;;;;;;;;;;;21.40;80.70;;;;;;5094581;28;19943;-33
2023/08/25 02:53:31;;;;;;;;;;;21.40;80.70;;;;;;5093283;28;19908;-28
2023/08/25 02:55:57;;;;;;;;;;;21.40;80.70;;;;;;5094506;28;19908;-30
2023/08/25 02:58:22;;;;;;;;;;;21.40;80.80;;;;;;5094421;28;19908;-31
2023/08/25 03:00:48;;;;;;;;;;;21.40;80.70;;;;;;5094511;28;20303;-30
2023/08/25 03:03:13;;;;;;;;;;;21.40;80.70;;;;;;5094401;28;19908;-31
2023/08/25 03:05:39;;;;;;;;;;;21.50;80.80;;;;;;5093210;28;19978;-30
2023/08/25 03:08:07;;;;;;;;;;;21.50;80.70;;;;;;5094129;28;19915;-29
2023/08/25 03:10:32;;;;;;;;;;;21.50;80.70;;;;;;5094504;28;19998;-30
2023/08/25 03:12:57;;;;;;;;;;;21.50;80.70;;;;;;5094325;28;20397;-30
2023/08/25 03:15:23;;;;;;;;;;;21.50;80.70;;;;;;5094098;28;19915;-30
2023/08/25 03:17:48;;;;;;;;;;;21.50;80.70;;;;;;5094130;28;19947;-32
2023/08/25 03:20:14;;;;;;;;;;;21.50;80.70;;;;;;5093956;28;20296;-30
2023/08/25 03:22:39;;;;;;;;;;;21.50;80.70;;;;;;5094004;28;19965;-34
2023/08/25 03:25:05;;;;;;;;;;;21.50;80.80;;;;;;5094022;28;19912;-31
2023/08/25 03:27:34;;;;;;;;;;;21.50;80.80;;;;;;5093797;28;19908;-29
2023/08/25 03:30:00;;;;;;;;;;;21.50;80.80;;;;;;5093808;28;19916;-31
2023/08/25 03:32:25;;;;;;;;;;;21.50;80.90;;;;;;5093819;28;20364;-29
2023/08/25 03:34:51;;;;;;;;;;;21.50;80.90;;;;;;5093786;28;19965;-30
2023/08/25 03:37:16;;;;;;;;;;;21.50;80.90;;;;;;5093657;28;20280;-30
2023/08/25 03:39:41;;;;;;;;;;;21.50;80.90;;;;;;5093686;28;20383;-33
2023/08/25 03:42:07;;;;;;;;;;;21.50;80.90;;;;;;5093583;28;20257;-28
2023/08/25 03:44:32;;;;;;;;;;;21.60;80.90;;;;;;5092251;28;19908;-29
2023/08/25 03:46:58;;;;;;;;;;;21.60;81.00;;;;;;5093673;28;19955;-30
2023/08/25 03:49:27;;;;;;;;;;;21.50;80.90;;;;;;5093199;28;19935;-30
2023/08/25 03:51:53;;;;;;;;;;;21.50;81.50;;;;;;5093604;28;19908;-30
2023/08/25 03:54:19;;;;;;;;;;;21.60;81.00;;;;;;5093461;28;19915;-31
2023/08/25 03:56:44;;;;;;;;;;;21.50;80.90;;;;;;5093471;28;19908;-31
2023/08/25 03:59:10;;;;;;;;;;;21.60;81.00;;;;;;5093212;28;20002;-31
2023/08/25 04:01:35;;;;;;;;;;;21.50;81.00;;;;;;5093382;28;19908;-32
2023/08/25 04:04:02;;;;;;;;;;;21.50;81.10;;;;;;5093280;28;20393;-36
2023/08/25 04:06:27;;;;;;;;;;;21.50;81.00;;;;;;5093115;28;19920;-33
2023/08/25 04:08:52;;;;;;;;;;;21.50;81.10;;;;;;5093066;28;19935;-36
2023/08/25 04:11:18;;;;;;;;;;;21.50;81.10;;;;;;5093178;28;19954;-30
2023/08/25 04:13:43;;;;;;;;;;;21.50;81.10;;;;;;5091738;28;19909;-34
2023/08/25 04:16:09;;;;;;;;;;;21.50;81.10;;;;;;5092850;28;20367;-35
2023/08/25 04:18:34;;;;;;;;;;;21.50;81.10;;;;;;5092571;28;19994;-34
2023/08/25 04:21:00;;;;;;;;;;;21.50;81.10;;;;;;5092771;28;19912;-33
2023/08/25 04:23:26;;;;;;;;;;;21.50;81.10;;;;;;5093014;28;19913;-31
2023/08/25 04:25:51;;;;;;;;;;;21.50;81.10;;;;;;5092874;28;20287;-32
2023/08/25 04:28:16;;;;;;;;;;;21.50;81.20;;;;;;5092665;28;19908;-31
2023/08/25 04:30:42;;;;;;;;;;;21.50;81.20;;;;;;5092810;28;19915;-32
2023/08/25 04:33:07;;;;;;;;;;;21.50;81.80;;;;;;5092722;28;19908;-29
2023/08/25 04:35:35;;;;;;;;;;;21.50;81.20;;;;;;5092755;28;19938;-33
2023/08/25 04:38:00;;;;;;;;;;;21.50;81.20;;;;;;5092623;28;20414;-28
2023/08/25 04:40:26;;;;;;;;;;;21.50;81.20;;;;;;5091446;28;19947;-35
2023/08/25 04:42:51;;;;;;;;;;;21.50;81.20;;;;;;5092562;28;19915;-30
2023/08/25 04:45:17;;;;;;;;;;;21.50;81.20;;;;;;5092597;28;20371;-34
2023/08/25 04:47:42;;;;;;;;;;;21.50;81.20;;;;;;5092524;28;19908;-31
2023/08/25 04:50:08;;;;;;;;;;;21.50;81.30;;;;;;5092253;28;20006;-31
2023/08/25 04:52:36;;;;;;;;;;;21.50;81.30;;;;;;5092568;28;19908;-29
2023/08/25 04:55:03;;;;;;;;;;;21.50;81.30;;;;;;5092299;28;19912;-31
2023/08/25 04:57:28;;;;;;;;;;;21.50;81.30;;;;;;5092274;28;19908;-29
2023/08/25 04:59:54;;;;;;;;;;;21.50;81.30;;;;;;5092390;28;19919;-33
2023/08/25 05:02:20;;;;;;;;;;;21.50;81.40;;;;;;5092489;28;19912;-29
2023/08/25 05:04:45;;;;;;;;;;;21.50;81.50;;;;;;5092113;28;19909;-31
2023/08/25 05:07:11;;;;;;;;;;;21.40;81.40;;;;;;5090922;28;20387;-29
2023/08/25 05:09:36;;;;;;;;;;;21.50;81.50;;;;;;5092161;28;19919;-29
2023/08/25 05:12:02;;;;;;;;;;;21.50;81.50;;;;;;5092213;28;20386;-32
2023/08/25 05:14:27;;;;;;;;;;;21.50;81.40;;;;;;5092158;28;19908;-29
2023/08/25 05:16:52;;;;;;;;;;;21.50;81.40;;;;;;5092352;28;19914;-41
2023/08/25 05:19:18;;;;;;;;;;;21.50;81.30;;;;;;5092106;28;19908;-29
2023/08/25 05:21:45;;;;;;;;;;;21.60;81.30;;;;;;5091977;28;19913;-33
2023/08/25 05:24:15;;;;;;;;;;;21.60;81.30;;;;;;5092264;28;19915;-32
2023/08/25 05:26:40;;;;;;;;;;;21.60;81.20;;;;;;5090739;28;19962;-29
2023/08/25 05:29:06;;;;;;;;;;;21.60;81.20;;;;;;5095048;28;19947;-29
2023/08/25 05:31:32;;;;;;;;;;;21.60;81.10;;;;;;5096291;28;19912;-30
2023/08/25 05:33:57;;;;;;;;;;;21.60;81.10;;;;;;5096184;28;20615;-29
2023/08/25 05:36:23;;;;;;;;;;;21.60;81.10;;;;;;5096203;28;19939;-29
2023/08/25 05:38:48;;;;;;;;;;;21.70;81.10;;;;;;5096027;28;20007;-31
2023/08/25 05:41:14;;;;;;;;;;;21.70;81.00;;;;;;5096076;28;19947;-30
2023/08/25 05:43:39;;;;;;;;;;;21.70;81.60;;;;;;5095874;28;19908;-30
2023/08/25 05:46:05;;;;;;;;;;;21.70;81.00;;;;;;5096047;28;19954;-33
2023/08/25 05:48:30;;;;;;;;;;;21.80;81.00;;;;;;5095551;28;20368;-32
2023/08/25 05:50:56;;;;;;;;;;;21.80;80.90;;;;;;5095823;28;19908;-31
2023/08/25 05:53:21;;;;;;;;;;;21.80;80.80;;;;;;5095664;28;19908;-30
2023/08/25 05:55:47;;;;;;;;;;;21.80;80.90;;;;;;5095701;28;20002;-31
2023/08/25 05:58:12;;;;;;;;;;;21.90;81.00;;;;;;5095608;28;20379;-39
2023/08/25 06:00:38;;;;;;;;;;;21.90;80.90;;;;;;5096065;28;19989;-30
2023/08/25 06:03:04;;;;;;;;;;;22.00;80.80;;;;;;5095641;28;19915;-33
2023/08/25 06:05:29;;;;;;;;;;;22.00;80.80;;;;;;5095485;28;19920;-33
2023/08/25 06:07:55;;;;;;;;;;;22.10;81.00;;;;;;5095485;28;19908;-30
2023/08/25 06:10:20;;;;;;;;;;;22.00;80.90;;;;;;5095458;28;19912;-32
2023/08/25 06:12:46;;;;;;;;;;;22.00;80.90;;;;;;5095453;28;19908;-30
2023/08/25 06:15:12;;;;;;;;;;;22.10;81.70;;;;;;5095326;28;19915;-29
2023/08/25 06:17:37;;;;;;;;;;;22.00;81.10;;;;;;5095120;28;19956;-29
2023/08/25 06:20:03;;;;;;;;;;;22.10;81.20;;;;;;5095115;28;19961;-29
2023/08/25 06:22:28;;;;;;;;;;;22.10;81.20;;;;;;5095360;28;20254;-32
2023/08/25 06:24:54;;;;;;;;;;;22.10;81.10;;;;;;5095130;28;19912;-30
2023/08/25 06:27:19;;;;;;;;;;;22.10;81.10;;;;;;5095031;28;20372;-29
2023/08/25 06:29:45;;;;;;;;;;;22.10;81.70;;;;;;5095188;28;19913;-30
2023/08/25 06:32:13;;;;;;;;;;;22.10;81.10;;;;;;5095158;28;20049;-31
2023/08/25 06:34:38;;;;;;;;;;;22.10;81.10;;;;;;5094974;28;19908;-30
2023/08/25 06:37:04;;;;;;;;;;;22.10;81.10;;;;;;5094874;28;19915;-40
2023/08/25 06:39:29;;;;;;;;;;;22.10;81.20;;;;;;5094843;28;20551;-31
2023/08/25 06:41:55;;;;;;;;;;;22.10;81.20;;;;;;5094880;28;19908;-29
2023/08/25 06:44:20;;;;;;;;;;;22.10;81.20;;;;;;5094824;28;19918;-29
2023/08/25 06:46:46;;;;;;;;;;;22.10;81.20;;;;;;5094813;28;19995;-30
2023/08/25 06:49:11;;;;;;;;;;;22.10;81.30;;;;;;5094464;28;19929;-32
2023/08/25 06:51:37;;;;;;;;;;;22.10;81.20;;;;;;5094609;28;19912;-29
2023/08/25 06:54:03;;;;;;;;;;;22.10;81.30;;;;;;5094695;28;19957;-32
2023/08/25 06:56:28;;;;;;;;;;;22.00;81.30;;;;;;5094502;28;19995;-30
2023/08/25 06:58:54;;;;;;;;;;;22.00;81.30;;;;;;5094419;28;19943;-30
2023/08/25 07:01:20;;;;;;;;;;;22.00;81.30;;;;;;5093115;28;20439;-31
2023/08/25 07:03:46;;;;;;;;;;;22.00;81.30;;;;;;5094452;28;19947;-30
2023/08/25 07:06:11;;;;;;;;;;;22.00;81.20;;;;;;5094295;28;19920;-29
2023/08/25 07:08:37;;;;;;;;;;;22.00;81.30;;;;;;5094083;28;20439;-30
2023/08/25 07:11:03;;;;;;;;;;;22.00;81.20;;;;;;5094241;28;19912;-29
2023/08/25 07:13:31;;;;;;;;;;;22.00;81.20;;;;;;5094222;28;19915;-32
2023/08/25 07:15:56;;;;;;;;;;;22.00;81.30;;;;;;5094419;28;20256;-31
2023/08/25 07:18:24;;;;;;;;;;;21.90;81.40;;;;;;5094048;28;19915;-34
2023/08/25 07:20:50;;;;;;;;;;;21.90;81.50;;;;;;5094372;28;19915;-34
2023/08/25 07:23:17;;;;;;;;;;;21.90;81.50;;;;;;5094065;28;19930;-30
2023/08/25 07:25:43;;;;;;;;;;;21.90;81.50;;;;;;5093984;28;19916;-30
2023/08/25 07:28:09;;;;;;;;;;;21.90;81.50;;;;;;5094145;28;20367;-29
2023/08/25 07:30:36;;;;;;;;;;;21.90;81.50;;;;;;5093990;28;20044;-30
2023/08/25 07:33:01;;;;;;;;;;;21.90;81.50;;;;;;5093920;28;19943;-31
2023/08/25 07:35:27;;;;;;;;;;;21.90;81.50;;;;;;5093819;28;19955;-32
2023/08/25 07:37:53;;;;;;;;;;;21.90;81.50;;;;;;5093496;28;19914;-30
2023/08/25 07:40:19;;;;;;;;;;;21.90;81.50;;;;;;5093794;28;19912;-29
2023/08/25 07:42:44;;;;;;;;;;;21.90;81.60;;;;;;5093489;28;19908;-29
2023/08/25 07:45:10;;;;;;;;;;;21.90;81.50;;;;;;5093736;28;20002;-31
2023/08/25 07:47:35;;;;;;;;;;;21.90;81.40;;;;;;5093452;28;19908;-30
2023/08/25 07:50:03;;;;;;;;;;;22.00;81.40;;;;;;5093477;28;20265;-31
2023/08/25 07:52:28;;;;;;;;;;;22.00;81.50;;;;;;5093365;28;19915;-31
2023/08/25 07:54:54;;;;;;;;;;;21.90;81.50;;;;;;5092136;28;19908;-30
2023/08/25 07:57:19;;;;;;;;;;;21.90;81.50;;;;;;5093266;28;19908;-30
2023/08/25 07:59:45;;;;;;;;;;;21.90;81.50;;;;;;5093338;28;20368;-40
2023/08/25 08:02:12;;;;;;;;;;;21.90;81.50;;;;;;5093358;28;20283;-29
2023/08/25 08:04:38;;;;;;;;;;;22.00;81.50;;;;;;5093128;28;19919;-31
2023/08/25 08:07:03;;;;;;;;;;;22.00;81.50;;;;;;5093188;28;20027;-34
2023/08/25 08:09:31;;;;;;;;;;;22.00;81.50;;;;;;5093308;28;19955;-30
2023/08/25 08:11:57;;;;;;;;;;;22.00;81.40;;;;;;5093482;28;19915;-33
2023/08/25 08:14:23;;;;;;;;;;;22.00;81.40;;;;;;5093104;28;19908;-32
2023/08/25 08:16:48;;;;;;;;;;;22.00;81.40;;;;;;5093027;28;19909;-33
2023/08/25 08:19:14;;;;;;;;;;;22.00;81.30;;;;;;5092827;28;19915;-32
2023/08/25 08:21:40;;;;;;;;;;;22.00;81.40;;;;;;5092936;28;19915;-32
2023/08/25 08:24:05;;;;;;;;;;;22.00;81.50;;;;;;5092980;28;19912;-30
2023/08/25 08:26:31;;;;;;;;;;;22.00;81.60;;;;;;5093124;28;19915;-30
2023/08/25 08:28:56;;;;;;;;;;;21.90;81.70;;;;;;5092607;28;20388;-30
2023/08/25 08:31:22;;;;;;;;;;;21.90;81.80;;;;;;5093220;28;19935;-29
2023/08/25 08:33:47;;;;;;;;;;;21.80;81.90;;;;;;5092799;28;19908;-32
2023/08/25 08:36:15;;;;;;;;;;;21.70;82.00;;;;;;5092827;28;20311;-31
2023/08/25 08:38:40;;;;;;;;;;;21.70;82.20;;;;;;5091181;28;19908;-32
2023/08/25 08:41:06;;;;;;;;;;;21.70;82.30;;;;;;5092540;28;19915;-37
2023/08/25 08:43:38;;;;;;;;;;;21.60;82.40;;;;;;5092547;28;19915;-34
2023/08/25 08:46:04;;;;;;;;;;;21.60;82.50;;;;;;5092944;28;20287;-38
2023/08/25 08:48:31;;;;;;;;;;;21.60;82.50;;;;;;5092453;28;19987;-36
2023/08/25 08:50:57;;;;;;;;;;;21.60;82.60;;;;;;5092412;28;19911;-35
2023/08/25 08:53:22;;;;;;;;;;;21.50;82.70;;;;;;5092523;28;19908;-37
2023/08/25 08:55:49;;;;;;;;;;;21.50;82.80;;;;;;5092356;28;19908;-33
2023/08/25 08:58:15;;;;;;;;;;;21.40;82.70;;;;;;5092114;28;19908;-37
2023/08/25 09:00:42;;;;;;;;;;;21.40;82.90;;;;;;5092254;28;19956;-37
2023/08/25 09:03:08;;;;;;;;;;;21.30;82.90;;;;;;5091508;28;19960;-38
2023/08/25 09:05:36;;;;;;;;;;;21.30;82.90;;;;;;5092273;28;20295;-33
2023/08/25 09:08:05;;;;;;;;;;;21.20;82.80;;;;;;5092642;28;20391;-32
2023/08/25 09:10:30;;;;;;;;;;;21.20;83.00;;;;;;5092485;28;20375;-34
2023/08/25 09:12:56;;;;;;;;;;;21.10;83.00;;;;;;5092287;28;19947;-33
2023/08/25 09:15:25;;;;;;;;;;;21.20;83.10;;;;;;5092121;28;19999;-31
2023/08/25 09:18:04;;;;;;;;;;;21.20;83.20;;;;;;5092027;28;19908;-31
2023/08/25 09:20:30;;;;;;;;;;;21.20;83.20;;;;;;5091944;28;20364;-32
2023/08/25 09:22:56;;;;;;;;;;;21.20;83.20;;;;;;5092084;28;20003;-33
2023/08/25 09:25:24;;;;;;;;;;;21.30;83.30;;;;;;5091983;28;20057;-30
2023/08/25 09:27:59;;;;;;;;;;;21.30;83.20;;;;;;5091758;28;20296;-31
2023/08/25 09:30:35;;;;;;;;;;;21.30;83.30;;;;;;5092023;28;19918;-31
2023/08/25 09:33:01;;;;;;;;;;;21.30;83.20;;;;;;5091978;28;19919;-31
2023/08/25 09:35:28;;;;;;;;;;;21.20;83.20;;;;;;5091943;28;19908;-34
2023/08/25 09:37:53;;;;;;;;;;;21.20;83.40;;;;;;5091733;28;19908;-32
2023/08/25 09:40:19;;;;;;;;;;;21.20;83.50;;;;;;5091803;28;20269;-34
2023/08/25 09:42:45;;;;;;;;;;;21.20;83.60;;;;;;5091763;28;20011;-32
2023/08/25 09:45:14;;;;;;;;;;;21.10;83.60;;;;;;5091779;28;19923;-34
2023/08/25 09:47:41;;;;;;;;;;;21.20;83.70;;;;;;5091649;28;20367;-31
2023/08/25 09:50:07;;;;;;;;;;;21.20;83.70;;;;;;5091559;28;19913;-34
2023/08/25 09:52:36;;;;;;;;;;;21.20;83.70;;;;;;5091868;28;19908;-34
2023/08/25 09:55:02;;;;;;;;;;;21.20;83.70;;;;;;5091638;28;19908;-32
2023/08/25 09:57:28;;;;;;;;;;;21.20;83.80;;;;;;5091596;28;20299;-31
2023/08/25 09:59:54;;;;;;;;;;;21.20;83.70;;;;;;5091663;28;19953;-30
2023/08/25 10:02:20;;;;;;;;;;;21.20;83.60;;;;;;5091819;28;20312;-30
2023/08/25 10:04:46;;;;;;;;;;;21.30;83.70;;;;;;5091504;28;20352;-31
2023/08/25 10:07:12;;;;;;;;;;;21.30;83.60;;;;;;5091452;28;19912;-32
2023/08/25 10:09:37;;;;;;;;;;;21.30;83.60;;;;;;5091472;28;19923;-31
2023/08/25 10:12:04;;;;;;;;;;;21.40;83.50;;;;;;5091686;28;19908;-30
2023/08/25 10:14:32;;;;;;;;;;;21.40;83.40;;;;;;5093627;28;19916;-31
2023/08/25 10:17:00;;;;;;;;;;;21.40;83.40;;;;;;5095642;28;19931;-30
2023/08/25 10:19:31;;;;;;;;;;;21.40;83.50;;;;;;5094972;28;19908;-35
2023/08/25 10:21:57;;;;;;;;;;;21.30;83.40;;;;;;5094983;28;19915;-36
2023/08/25 10:24:23;;;;;;;;;;;21.30;83.60;;;;;;5094958;28;19908;-32
2023/08/25 10:26:49;;;;;;;;;;;21.30;83.70;;;;;;5093536;28;19958;-30
2023/08/25 10:29:17;;;;;;;;;;;21.20;83.70;;;;;;5094930;28;19923;-30
2023/08/25 10:31:49;;;;;;;;;;;21.30;84.20;;;;;;5094941;28;20002;-30
2023/08/25 10:34:35;;;;;;;;;;;21.40;84.10;;;;;;5094790;28;20344;-32
2023/08/25 10:37:10;;;;;;;;;;;21.60;83.80;;;;;;5094850;28;20497;-34
2023/08/25 10:39:48;;;;;;;;;;;21.70;83.50;;;;;;5094673;28;19916;-31
2023/08/25 10:42:29;;;;;;;;;;;21.90;83.40;;;;;;5094729;28;20049;-33
2023/08/25 10:44:56;;;;;;;;;;;22.10;83.20;;;;;;5094614;28;19938;-33
2023/08/25 10:47:22;;;;;;;;;;;22.30;82.90;;;;;;5094344;28;20038;-32
2023/08/25 10:49:51;;;;;;;;;;;22.50;82.60;;;;;;5094393;28;19916;-32
2023/08/25 10:52:19;;;;;;;;;;;22.70;82.40;;;;;;5094531;28;19908;-29
2023/08/25 10:54:45;;;;;;;;;;;22.80;82.20;;;;;;5094487;28;19908;-33
2023/08/25 10:57:20;;;;;;;;;;;22.90;82.00;;;;;;5094476;28;20002;-32
2023/08/25 10:59:52;;;;;;;;;;;23.10;81.80;;;;;;5093227;28;19985;-34
2023/08/25 11:02:34;;;;;;;;;;;23.30;81.60;;;;;;5094421;28;19908;-30
2023/08/25 11:05:18;;;;;;;;;;;23.30;81.60;;;;;;5094644;28;19923;-32
2023/08/25 11:07:43;;;;;;;;;;;23.30;81.50;;;;;;5094395;28;19908;-33
2023/08/25 11:10:12;;;;;;;;;;;23.50;81.50;;;;;;5094706;28;20281;-31
2023/08/25 11:12:39;;;;;;;;;;;23.40;81.40;;;;;;5094212;28;20391;-30
2023/08/25 11:15:07;;;;;;;;;;;23.30;81.40;;;;;;5094262;28;19908;-30
2023/08/25 11:17:33;;;;;;;;;;;23.30;81.50;;;;;;5094059;28;19908;-31
2023/08/25 11:19:58;;;;;;;;;;;23.30;81.50;;;;;;5094287;28;19915;-30
2023/08/25 11:22:24;;;;;;;;;;;23.20;81.40;;;;;;5093948;28;19908;-31
2023/08/25 11:24:49;;;;;;;;;;;23.10;81.50;;;;;;5093635;28;19912;-30
2023/08/25 11:27:16;;;;;;;;;;;23.00;81.60;;;;;;5093600;28;19908;-33
2023/08/25 11:29:45;;;;;;;;;;;22.80;81.60;;;;;;5093924;28;19916;-30
2023/08/25 11:32:11;;;;;;;;;;;22.70;81.70;;;;;;5093766;28;19919;-31
2023/08/25 11:34:37;;;;;;;;;;;22.60;82.00;;;;;;5093845;28;19916;-32
2023/08/25 11:37:03;;;;;;;;;;;22.60;82.00;;;;;;5093826;28;19908;-30
2023/08/25 11:39:28;;;;;;;;;;;22.60;81.80;;;;;;5092373;28;20363;-30
2023/08/25 11:41:54;;;;;;;;;;;22.60;81.70;;;;;;5094066;28;19908;-31
2023/08/25 11:44:19;;;;;;;;;;;22.60;81.70;;;;;;5093446;28;19912;-30
2023/08/25 11:46:45;;;;;;;;;;;22.60;81.70;;;;;;5093663;28;20023;-36
2023/08/25 11:49:10;;;;;;;;;;;22.60;81.60;;;;;;5093322;28;19920;-32
2023/08/25 11:51:36;;;;;;;;;;;22.70;81.50;;;;;;5093371;28;19912;-32
2023/08/25 11:54:02;;;;;;;;;;;22.70;81.20;;;;;;5093568;28;19908;-31
2023/08/25 11:56:28;;;;;;;;;;;22.60;81.30;;;;;;5093406;28;19930;-31
2023/08/25 11:58:53;;;;;;;;;;;22.60;81.50;;;;;;5093301;28;19908;-33
2023/08/25 12:01:19;;;;;;;;;;;22.60;81.60;;;;;;5093244;28;20433;-32
2023/08/25 12:03:45;;;;;;;;;;;22.50;81.60;;;;;;5093362;28;19908;-32
2023/08/25 12:06:10;;;;;;;;;;;22.50;81.70;;;;;;5091890;28;20443;-33
2023/08/25 12:08:37;;;;;;;;;;;22.50;81.80;;;;;;5093090;28;19940;-33
2023/08/25 12:11:02;;;;;;;;;;;22.40;81.80;;;;;;5093351;28;19912;-33
2023/08/25 12:13:29;;;;;;;;;;;22.30;81.80;;;;;;5093240;28;20393;-34
2023/08/25 12:15:55;;;;;;;;;;;22.30;82.00;;;;;;5093148;28;19915;-34
2023/08/25 12:18:21;;;;;;;;;;;22.30;82.10;;;;;;5092852;28;20002;-33
2023/08/25 12:20:49;;;;;;;;;;;22.30;82.10;;;;;;5092115;28;22532;-31
2023/08/25 12:23:15;;;;;;;;;;;22.30;82.20;;;;;;5093130;28;20003;-32
2023/08/25 12:25:42;;;;;;;;;;;22.30;82.20;;;;;;5093252;28;19994;-33
2023/08/25 12:28:08;;;;;;;;;;;22.30;82.20;;;;;;5092910;28;20249;-32
2023/08/25 12:30:34;;;;;;;;;;;22.40;82.20;;;;;;5092752;28;19912;-32
2023/08/25 12:33:00;;;;;;;;;;;22.50;82.10;;;;;;5092864;28;19912;-32
2023/08/25 12:35:25;;;;;;;;;;;22.50;82.00;;;;;;5092738;28;20326;-31
2023/08/25 12:37:51;;;;;;;;;;;22.50;82.10;;;;;;5092375;28;19908;-31
2023/08/25 12:40:21;;;;;;;;;;;22.50;81.90;;;;;;5092668;28;19954;-31
2023/08/25 12:42:48;;;;;;;;;;;22.50;82.00;;;;;;5091178;28;20317;-31
2023/08/25 12:45:14;;;;;;;;;;;22.50;81.90;;;;;;5091257;28;19909;-32
2023/08/25 12:47:40;;;;;;;;;;;22.50;82.00;;;;;;5091086;28;20029;-35
2023/08/25 12:50:05;;;;;;;;;;;22.50;82.00;;;;;;5092258;28;19975;-32
2023/08/25 12:52:33;;;;;;;;;;;22.50;82.00;;;;;;5092437;28;19908;-31
2023/08/25 12:54:58;;;;;;;;;;;22.70;82.10;;;;;;5091332;28;19964;-30
2023/08/25 12:57:24;;;;;;;;;;;22.70;81.80;;;;;;5092329;28;19939;-31
2023/08/25 12:59:49;;;;;;;;;;;22.90;81.70;;;;;;5092378;28;20462;-34
2023/08/25 13:02:15;;;;;;;;;;;23.00;81.60;;;;;;5092159;28;19931;-38
2023/08/25 13:04:40;;;;;;;;;;;23.20;81.50;;;;;;5092070;28;19952;-31
2023/08/25 13:07:06;;;;;;;;;;;23.30;81.20;;;;;;5092265;28;20379;-33
2023/08/25 13:09:31;;;;;;;;;;;23.50;80.90;;;;;;5091985;28;20439;-31
2023/08/25 13:11:57;;;;;;;;;;;23.70;80.60;;;;;;5092290;28;19912;-31
2023/08/25 13:14:23;;;;;;;;;;;23.80;80.30;;;;;;5092252;28;19912;-31
2023/08/25 13:16:48;;;;;;;;;;;23.90;80.20;;;;;;5092239;28;19934;-31
2023/08/25 13:19:15;;;;;;;;;;;24.00;80.00;;;;;;5091888;28;19912;-32
2023/08/25 13:21:41;;;;;;;;;;;24.10;80.00;;;;;;5092129;28;19936;-43
2023/08/25 13:24:07;;;;;;;;;;;24.30;79.90;;;;;;5092411;28;20339;-45
2023/08/25 13:26:32;;;;;;;;;;;24.50;79.60;;;;;;5092137;28;20235;-46
2023/08/25 13:28:58;;;;;;;;;;;24.60;79.30;;;;;;5092019;28;19916;-43
2023/08/25 13:31:23;;;;;;;;;;;24.70;79.20;;;;;;5091954;28;19912;-45
2023/08/25 13:33:49;;;;;;;;;;;24.80;78.90;;;;;;5092137;28;19912;-43
2023/08/25 13:36:16;;;;;;;;;;;24.80;78.90;;;;;;5091966;28;19999;-46
2023/08/25 13:38:42;;;;;;;;;;;24.80;78.90;;;;;;5091859;28;19912;-41
2023/08/25 13:41:07;;;;;;;;;;;24.80;78.90;;;;;;5092101;28;19912;-46
2023/08/25 13:43:33;;;;;;;;;;;24.90;78.80;;;;;;5091822;28;19912;-43
2023/08/25 13:45:58;;;;;;;;;;;24.90;78.50;;;;;;5091943;28;20003;-43
2023/08/25 13:48:24;;;;;;;;;;;24.90;78.50;;;;;;5091687;28;19979;-44
2023/08/25 13:50:49;;;;;;;;;;;24.80;78.50;;;;;;5095978;28;20531;-44
2023/08/25 13:53:15;;;;;;;;;;;24.90;78.40;;;;;;5095762;28;19913;-44
2023/08/25 13:55:40;;;;;;;;;;;24.80;78.30;;;;;;5095747;28;20426;-44
2023/08/25 13:58:06;;;;;;;;;;;24.80;78.40;;;;;;5095528;28;19916;-44
2023/08/25 14:00:31;;;;;;;;;;;24.70;78.30;;;;;;5095680;28;19955;-44
2023/08/25 14:02:57;;;;;;;;;;;24.70;78.50;;;;;;5095867;28;20002;-45
2023/08/25 14:05:22;;;;;;;;;;;24.70;78.50;;;;;;5095604;28;19924;-44
2023/08/25 14:07:49;;;;;;;;;;;24.90;78.30;;;;;;5095585;28;20374;-43
2023/08/25 14:10:15;;;;;;;;;;;25.00;78.10;;;;;;5095307;28;19916;-44